Time;durP1;ratioP1;P1;durP2;ratioP2;P2;SDS_P1;SDS_P2;PMS_P1;PMS_P2;Temp;Humidity;BMP_temperature;BMP_pressure;BME280_temperature;BME280_humidity;BME280_pressure;Samples;Min_cycle;Max_cycle;Signal;HPM_P1;HPM_P2
2024/01/15 00:00:36;;;;;;;15.00;13.50;;;;;;;-0.38;94.25;96095.77;106949;1275;22605;-75
2024/01/15 00:03:24;;;;;;;14.40;12.90;;;;;;;-0.38;93.55;96099.59;106907;1275;25520;-75
2024/01/15 00:05:52;;;;;;;21.70;19.60;;;;;;;-0.34;93.63;96089.36;106923;1275;25354;-75
2024/01/15 00:08:20;;;;;;;17.40;15.60;;;;;;;-0.30;93.43;96080.80;106959;1275;22543;-75
2024/01/15 00:10:48;;;;;;;16.50;14.80;;;;;;;-0.32;93.31;96078.91;106919;1275;25500;-76
2024/01/15 00:13:16;;;;;;;16.60;14.80;;;;;;;-0.33;92.74;96070.03;106930;1275;25408;-76
2024/01/15 00:15:44;;;;;;;15.10;13.50;;;;;;;-0.34;92.41;96067.02;106909;1275;22544;-76
2024/01/15 00:18:12;;;;;;;13.70;12.40;;;;;;;-0.35;92.63;96051.41;107058;1275;25369;-76
2024/01/15 00:20:41;;;;;;;15.00;13.00;;;;;;;-0.34;92.83;96052.45;106898;1275;25249;-76
2024/01/15 00:23:08;;;;;;;17.50;15.40;;;;;;;-0.33;92.52;96057.48;106982;1275;22999;-76
2024/01/15 00:25:36;;;;;;;15.60;14.00;;;;;;;-0.35;92.42;96050.20;106978;1275;22528;-76
2024/01/15 00:28:05;;;;;;;13.80;12.50;;;;;;;-0.35;91.92;96051.52;106929;1275;25500;-75
2024/01/15 00:30:32;;;;;;;20.80;18.50;;;;;;;-0.33;92.25;96043.20;106875;1275;22527;-75
2024/01/15 00:33:01;;;;;;;20.90;16.80;;;;;;;-0.29;91.98;96041.05;106886;1275;25454;-76
2024/01/15 00:35:29;;;;;;;17.50;15.60;;;;;;;-0.31;91.94;96035.30;106950;1275;25332;-76
2024/01/15 00:37:57;;;;;;;15.30;13.80;;;;;;;-0.33;91.48;96032.34;106922;1275;22535;-76
2024/01/15 00:40:25;;;;;;;15.20;13.60;;;;;;;-0.38;91.56;96030.41;106889;1275;22651;-78
2024/01/15 00:42:53;;;;;;;12.60;11.30;;;;;;;-0.36;91.91;96028.55;107249;1269;22632;-76
2024/01/15 00:45:21;;;;;;;14.60;13.10;;;;;;;-0.32;92.21;96030.11;106792;1276;22545;-76
2024/01/15 00:47:49;;;;;;;14.30;12.90;;;;;;;-0.32;91.72;96024.04;106780;1269;22624;-76
2024/01/15 00:50:17;;;;;;;15.60;14.00;;;;;;;-0.34;91.42;96024.46;106807;1276;22690;-73
2024/01/15 00:52:45;;;;;;;14.10;12.60;;;;;;;-0.36;91.26;96017.27;106769;1276;23923;-74
2024/01/15 00:55:13;;;;;;;14.40;12.70;;;;;;;-0.40;91.25;96014.98;106776;1276;22564;-74
2024/01/15 00:57:41;;;;;;;13.10;11.30;;;;;;;-0.38;91.73;96013.59;106827;1276;25227;-78
2024/01/15 01:00:10;;;;;;;14.00;12.50;;;;;;;-0.34;92.11;96014.67;106811;1257;22524;-75
2024/01/15 01:02:38;;;;;;;12.90;11.80;;;;;;;-0.33;91.43;96010.55;106868;1265;22596;-75
2024/01/15 01:05:06;;;;;;;14.90;13.50;;;;;;;-0.36;91.58;96003.57;107003;1275;24364;-76
2024/01/15 01:07:34;;;;;;;13.80;12.40;;;;;;;-0.38;90.96;96004.58;107008;1268;23922;-77
2024/01/15 01:10:03;;;;;;;14.30;12.90;;;;;;;-0.38;90.89;96013.31;106983;1253;24088;-75
2024/01/15 01:12:31;;;;;;;13.60;12.20;;;;;;;-0.36;91.70;96011.56;106848;1275;24046;-75
2024/01/15 01:14:59;;;;;;;13.10;11.80;;;;;;;-0.33;91.42;96014.35;106832;1265;22627;-76
2024/01/15 01:17:28;;;;;;;15.00;13.30;;;;;;;-0.32;90.95;96003.22;106832;1265;22707;-76
2024/01/15 01:19:56;;;;;;;13.30;12.10;;;;;;;-0.34;90.91;95990.95;106984;1265;22688;-76
2024/01/15 01:22:24;;;;;;;13.20;11.80;;;;;;;-0.37;90.74;95989.13;106878;1275;22554;-78
2024/01/15 01:24:52;;;;;;;12.30;11.00;;;;;;;-0.37;90.57;95982.94;106824;1273;22538;-78
2024/01/15 01:27:20;;;;;;;12.40;11.10;;;;;;;-0.32;91.38;95970.58;107073;1274;22538;-76
2024/01/15 01:29:48;;;;;;;13.10;11.00;;;;;;;-0.31;91.36;95966.59;106812;1268;24218;-77
2024/01/15 01:32:16;;;;;;;12.60;11.30;;;;;;;-0.32;90.80;95964.70;106806;1260;24196;-76
2024/01/15 01:34:44;;;;;;;13.00;11.70;;;;;;;-0.35;90.55;95968.58;106905;1275;24862;-76
2024/01/15 01:37:14;;;;;;;12.50;11.10;;;;;;;-0.39;90.48;95967.45;106791;1274;23892;-76
2024/01/15 01:39:43;;;;;;;12.90;11.60;;;;;;;-0.40;90.89;95959.88;107001;1276;25377;-75
2024/01/15 01:42:12;;;;;;;11.80;10.70;;;;;;;-0.36;91.22;95959.22;106946;1265;24455;-76
2024/01/15 01:44:40;;;;;;;11.20;10.00;;;;;;;-0.36;91.08;95951.66;107071;1275;22559;-75
2024/01/15 01:47:08;;;;;;;11.20;10.10;;;;;;;-0.38;90.86;95945.64;106878;1267;24270;-77
2024/01/15 01:49:37;;;;;;;11.80;10.60;;;;;;;-0.39;90.72;95937.44;106795;1257;22783;-76
2024/01/15 01:52:07;;;;;;;11.90;10.60;;;;;;;-0.42;90.31;95938.41;106906;1274;25530;-79
2024/01/15 01:54:36;;;;;;;11.20;10.10;;;;;;;-0.40;90.52;95939.83;106879;1264;24156;-75
2024/01/15 01:57:06;;;;;;;11.50;9.50;;;;;;;-0.37;90.98;95937.37;106944;1260;22657;-76
2024/01/15 01:59:35;;;;;;;11.00;9.90;;;;;;;-0.35;90.73;95931.91;106867;1275;25346;-76
2024/01/15 02:02:04;;;;;;;10.50;9.40;;;;;;;-0.36;90.44;95931.39;106926;1274;22521;-76
2024/01/15 02:04:33;;;;;;;11.30;10.10;;;;;;;-0.38;90.14;95925.10;106867;1275;25506;-76
2024/01/15 02:07:01;;;;;;;10.20;9.20;;;;;;;-0.40;89.71;95924.38;106929;1274;25531;-78
2024/01/15 02:09:29;;;;;;;11.00;9.90;;;;;;;-0.42;89.92;95923.37;106999;1262;22635;-79
2024/01/15 02:11:57;;;;;;;10.70;9.60;;;;;;;-0.39;90.44;95917.05;107363;1275;23935;-76
2024/01/15 02:14:51;;;;;;;11.10;10.00;;;;;;;-0.38;90.69;95914.36;106911;1274;22586;-77
2024/01/15 02:17:19;;;;;;;10.70;9.60;;;;;;;-0.39;90.56;95913.41;107280;1266;22678;-78
2024/01/15 02:19:47;;;;;;;11.30;10.10;;;;;;;-0.40;90.26;95913.85;106915;1274;24191;-77
2024/01/15 02:22:15;;;;;;;12.10;10.70;;;;;;;-0.44;90.35;95906.31;106821;1274;25307;-77
2024/01/15 02:24:43;;;;;;;10.20;9.10;;;;;;;-0.43;89.97;95905.36;107214;1275;22544;-78
2024/01/15 02:27:11;;;;;;;9.50;8.40;;;;;;;-0.42;90.30;95899.95;107271;1273;22533;-78
2024/01/15 02:29:40;;;;;;;9.60;8.60;;;;;;;-0.37;90.13;95894.50;107157;1264;22550;-78
2024/01/15 02:32:09;;;;;;;10.80;9.70;;;;;;;-0.37;89.78;95895.29;106840;1271;24268;-76
2024/01/15 02:34:36;;;;;;;12.00;10.80;;;;;;;-0.38;89.28;95891.23;106828;1275;23307;-75
2024/01/15 02:37:05;;;;;;;13.20;11.60;;;;;;;-0.40;88.84;95889.49;106741;1262;25333;-76
2024/01/15 02:39:33;;;;;;;11.80;10.60;;;;;;;-0.43;88.90;95887.98;107070;1263;22556;-76
2024/01/15 02:42:01;;;;;;;12.80;11.50;;;;;;;-0.41;89.22;95888.45;106775;1274;24213;-78
2024/01/15 02:44:29;;;;;;;12.10;10.90;;;;;;;-0.38;89.41;95881.44;107138;1267;25341;-79
2024/01/15 02:46:56;;;;;;;11.80;10.60;;;;;;;-0.40;89.29;95876.91;107206;1275;22553;-79
2024/01/15 02:49:24;;;;;;;11.20;10.10;;;;;;;-0.43;88.86;95872.02;107106;1273;22550;-79
2024/01/15 02:51:52;;;;;;;11.20;10.10;;;;;;;-0.45;88.91;95871.13;107146;1275;22543;-79
2024/01/15 02:54:20;;;;;;;9.80;8.80;;;;;;;-0.49;88.83;95865.08;107109;1254;22598;-80
2024/01/15 02:56:48;;;;;;;10.00;8.80;;;;;;;-0.49;89.38;95865.87;107212;1266;23492;-79
2024/01/15 02:59:16;;;;;;;8.90;7.90;;;;;;;-0.44;89.51;95860.39;107118;1260;22570;-79
2024/01/15 03:01:44;;;;;;;9.40;8.40;;;;;;;-0.41;89.40;95855.42;107162;1269;24199;-79
2024/01/15 03:04:12;;;;;;;9.90;8.60;;;;;;;-0.41;88.74;95850.61;107113;1275;25537;-79
2024/01/15 03:06:40;;;;;;;10.00;9.10;;;;;;;-0.44;88.86;95847.30;107178;1273;22614;-79
2024/01/15 03:09:08;;;;;;;11.70;10.50;;;;;;;-0.46;88.34;95842.52;106792;1269;22525;-79
2024/01/15 03:11:38;;;;;;;10.20;8.70;;;;;;;-0.49;88.16;95834.60;107155;1275;22664;-78
2024/01/15 03:14:06;;;;;;;10.00;9.00;;;;;;;-0.50;88.50;95826.83;107015;1265;22536;-78
2024/01/15 03:16:34;;;;;;;10.30;9.20;;;;;;;-0.45;88.84;95830.06;107325;1275;22544;-78
2024/01/15 03:19:02;;;;;;;9.50;8.50;;;;;;;-0.42;88.36;95826.65;107326;1259;24237;-78
2024/01/15 03:21:30;;;;;;;10.10;9.00;;;;;;;-0.42;87.74;95820.73;107025;1275;22624;-78
2024/01/15 03:23:58;;;;;;;10.60;9.20;;;;;;;-0.46;87.42;95813.30;107024;1275;22576;-78
2024/01/15 03:26:25;;;;;;;11.10;9.90;;;;;;;-0.48;87.12;95812.73;106837;1269;25313;-77
2024/01/15 03:28:53;;;;;;;10.20;9.10;;;;;;;-0.51;86.97;95809.23;106882;1268;24269;-78
2024/01/15 03:31:21;;;;;;;10.00;8.80;;;;;;;-0.53;87.69;95802.04;106939;1275;22544;-79
2024/01/15 03:33:53;;;;;;;9.20;8.30;;;;;;;-0.51;88.44;95800.33;106880;1276;25473;-79
2024/01/15 03:36:21;;;;;;;8.60;7.70;;;;;;;-0.49;88.36;95803.64;106935;1274;24267;-78
2024/01/15 03:38:49;;;;;;;9.20;8.30;;;;;;;-0.51;88.05;95800.38;106777;1268;23447;-79
2024/01/15 03:41:17;;;;;;;9.60;8.60;;;;;;;-0.51;87.79;95796.36;106759;1264;23915;-79
2024/01/15 03:43:45;;;;;;;9.50;8.50;;;;;;;-0.54;87.44;95792.85;106767;1259;22553;-78
2024/01/15 03:46:13;;;;;;;10.00;8.10;;;;;;;-0.56;87.37;95791.91;106839;1276;25527;-79
2024/01/15 03:48:41;;;;;;;9.00;8.00;;;;;;;-0.56;86.74;95792.23;106822;1275;23569;-79
2024/01/15 03:51:09;;;;;;;8.90;8.00;;;;;;;-0.52;87.08;95778.92;107548;1276;22552;-78
2024/01/15 03:53:38;;;;;;;9.00;8.00;;;;;;;-0.48;87.41;95782.25;107074;1262;23130;-78
2024/01/15 03:56:06;;;;;;;8.50;7.60;;;;;;;-0.48;87.06;95780.10;107187;1277;22552;-78
2024/01/15 03:58:34;;;;;;;8.60;7.30;;;;;;;-0.50;86.93;95774.17;107296;1274;24192;-79
2024/01/15 04:01:02;;;;;;;8.70;7.80;;;;;;;-0.49;86.47;95771.73;106868;1276;22579;-79
2024/01/15 04:03:30;;;;;;;8.20;7.40;;;;;;;-0.52;86.44;95760.44;107229;1276;24383;-79
2024/01/15 04:05:58;;;;;;;7.80;6.90;;;;;;;-0.49;85.62;95768.78;107198;1276;24370;-78
2024/01/15 04:08:26;;;;;;;7.40;6.60;;;;;;;-0.49;86.17;95767.82;106863;1267;23889;-78
2024/01/15 04:10:54;;;;;;;8.80;7.90;;;;;;;-0.45;86.54;95764.73;106797;1262;22563;-78
2024/01/15 04:13:22;;;;;;;8.00;7.20;;;;;;;-0.43;86.34;95771.78;106587;1275;22647;-78
2024/01/15 04:15:50;;;;;;;8.90;8.00;;;;;;;-0.41;85.83;95770.35;106825;1259;25415;-78
2024/01/15 04:18:18;;;;;;;10.70;9.60;;;;;;;-0.42;85.45;95769.66;106754;1275;25422;-77
2024/01/15 04:20:46;;;;;;;9.80;8.50;;;;;;;-0.45;85.46;95778.16;106868;1263;23395;-78
2024/01/15 04:23:14;;;;;;;11.20;9.50;;;;;;;-0.46;85.24;95767.02;106834;1265;25501;-78
2024/01/15 04:25:42;;;;;;;10.60;8.20;;;;;;;-0.44;85.98;95768.14;106817;1275;22549;-78
2024/01/15 04:28:10;;;;;;;12.40;10.30;;;;;;;-0.44;86.37;95763.43;106786;1274;22546;-78
2024/01/15 04:30:38;;;;;;;11.30;9.70;;;;;;;-0.40;85.93;95766.05;106806;1265;22543;-78
2024/01/15 04:33:06;;;;;;;11.00;9.50;;;;;;;-0.43;85.63;95777.23;106825;1274;25355;-78
2024/01/15 04:35:35;;;;;;;9.30;8.10;;;;;;;-0.44;85.30;95775.39;106818;1275;25374;-78
2024/01/15 04:38:03;;;;;;;9.90;8.60;;;;;;;-0.45;85.22;95773.77;106784;1262;23373;-77
2024/01/15 04:40:30;;;;;;;7.50;6.70;;;;;;;-0.48;85.36;95777.23;106811;1275;25429;-78
2024/01/15 04:42:58;;;;;;;7.60;6.60;;;;;;;-0.46;85.58;95764.30;106808;1275;25448;-77
2024/01/15 04:45:28;;;;;;;8.10;7.20;;;;;;;-0.43;85.87;95764.64;106822;1265;24461;-79
2024/01/15 04:47:57;;;;;;;8.20;6.60;;;;;;;-0.42;85.71;95769.14;106981;1275;24248;-78
2024/01/15 04:50:26;;;;;;;8.60;7.10;;;;;;;-0.44;85.70;95768.41;106983;1275;22559;-78
2024/01/15 04:52:54;;;;;;;8.40;6.80;;;;;;;-0.46;85.32;95768.74;106888;1262;24192;-78
2024/01/15 04:55:22;;;;;;;10.70;7.60;;;;;;;-0.47;85.33;95770.61;106915;1275;22540;-80
2024/01/15 04:57:49;;;;;;;12.00;7.80;;;;;;;-0.49;85.51;95768.45;106841;1261;22968;-79
2024/01/15 05:00:18;;;;;;;9.20;7.50;;;;;;;-0.45;85.65;95766.41;107181;1275;22551;-79
2024/01/15 05:02:46;;;;;;;9.40;8.00;;;;;;;-0.41;86.03;95758.86;107176;1275;24049;-78
2024/01/15 05:05:14;;;;;;;8.80;6.90;;;;;;;-0.39;85.76;95759.85;107185;1275;22618;-78
2024/01/15 05:07:42;;;;;;;8.00;7.10;;;;;;;-0.38;85.39;95752.89;107232;1275;24275;-78
2024/01/15 05:10:10;;;;;;;8.60;7.70;;;;;;;-0.40;85.38;95747.30;107241;1275;25347;-78
2024/01/15 05:12:38;;;;;;;9.10;8.10;;;;;;;-0.40;84.86;95743.13;107379;1275;23896;-78
2024/01/15 05:15:06;;;;;;;11.50;9.00;;;;;;;-0.41;85.02;95745.25;107241;1273;23332;-78
2024/01/15 05:17:34;;;;;;;8.30;7.50;;;;;;;-0.40;85.70;95746.09;107246;1275;22546;-79
2024/01/15 05:20:03;;;;;;;8.20;7.30;;;;;;;-0.36;85.90;95747.27;107186;1273;25429;-78
2024/01/15 05:22:31;;;;;;;9.40;8.50;;;;;;;-0.38;85.55;95745.45;107213;1264;24235;-78
2024/01/15 05:24:59;;;;;;;10.70;9.40;;;;;;;-0.38;85.29;95747.92;107255;1275;22545;-77
2024/01/15 05:27:27;;;;;;;9.00;7.80;;;;;;;-0.41;85.35;95744.67;106946;1273;22647;-78
2024/01/15 05:29:55;;;;;;;8.20;7.00;;;;;;;-0.45;85.39;95740.54;106970;1276;24315;-78
2024/01/15 05:32:23;;;;;;;9.60;8.60;;;;;;;-0.42;85.94;95736.75;107011;1273;25336;-78
2024/01/15 05:34:51;;;;;;;10.30;9.20;;;;;;;-0.41;86.07;95736.95;106858;1269;22798;-79
2024/01/15 05:37:20;;;;;;;9.40;8.20;;;;;;;-0.42;85.75;95748.06;106753;1267;25362;-78
2024/01/15 05:39:47;;;;;;;12.20;9.80;;;;;;;-0.42;85.57;95744.89;106639;1262;23539;-78
2024/01/15 05:42:16;;;;;;;10.60;7.60;;;;;;;-0.45;85.50;95740.96;106802;1268;25429;-78
2024/01/15 05:44:44;;;;;;;10.80;9.00;;;;;;;-0.45;85.29;95738.20;106760;1262;22514;-78
2024/01/15 05:47:12;;;;;;;10.50;9.00;;;;;;;-0.42;85.79;95745.00;106795;1275;22638;-78
2024/01/15 05:49:42;;;;;;;10.90;8.20;;;;;;;-0.43;86.00;95730.67;106788;1253;25635;-78
2024/01/15 05:52:10;;;;;;;9.90;8.40;;;;;;;-0.42;85.91;95736.06;106799;1252;24166;-77
2024/01/15 05:54:38;;;;;;;8.40;7.50;;;;;;;-0.44;85.54;95725.61;106779;1269;23870;-77
2024/01/15 05:57:06;;;;;;;9.90;8.40;;;;;;;-0.46;85.48;95726.20;106865;1252;24250;-78
2024/01/15 05:59:36;;;;;;;9.60;7.90;;;;;;;-0.45;85.85;95726.08;106815;1268;24367;-78
2024/01/15 06:02:04;;;;;;;11.30;9.90;;;;;;;-0.46;86.41;95727.26;106867;1272;22650;-77
2024/01/15 06:04:32;;;;;;;8.80;7.90;;;;;;;-0.45;86.70;95723.60;106824;1275;24271;-79
2024/01/15 06:07:00;;;;;;;10.20;9.20;;;;;;;-0.44;86.31;95725.77;107157;1275;22586;-79
2024/01/15 06:09:28;;;;;;;10.40;9.30;;;;;;;-0.46;86.00;95725.98;107307;1269;23143;-77
2024/01/15 06:11:56;;;;;;;10.90;8.90;;;;;;;-0.47;85.77;95726.74;106818;1265;22540;-78
2024/01/15 06:14:24;;;;;;;10.40;9.30;;;;;;;-0.48;86.18;95724.48;106849;1274;25265;-80
2024/01/15 06:16:53;;;;;;;9.60;8.70;;;;;;;-0.41;86.77;95728.70;106869;1275;22553;-79
2024/01/15 06:19:21;;;;;;;10.20;9.00;;;;;;;-0.42;86.48;95731.98;106611;1271;22550;-79
2024/01/15 06:21:49;;;;;;;11.10;9.70;;;;;;;-0.44;86.34;95739.89;106824;1261;25317;-79
2024/01/15 06:24:20;;;;;;;13.20;10.10;;;;;;;-0.45;85.92;95743.91;106787;1273;22533;-79
2024/01/15 06:26:48;;;;;;;9.90;8.90;;;;;;;-0.47;86.19;95736.90;106830;1264;22533;-79
2024/01/15 06:29:15;;;;;;;9.80;8.40;;;;;;;-0.44;86.36;95744.97;106814;1275;22650;-79
2024/01/15 06:31:44;;;;;;;10.20;8.10;;;;;;;-0.40;86.51;95739.11;107261;1269;22615;-78
2024/01/15 06:34:12;;;;;;;11.30;8.70;;;;;;;-0.38;86.06;95730.72;107195;1270;22542;-77
2024/01/15 06:36:40;;;;;;;9.40;8.10;;;;;;;-0.41;85.83;95733.24;106839;1262;22570;-78
2024/01/15 06:39:09;;;;;;;11.80;10.60;;;;;;;-0.42;85.60;95735.27;106813;1268;22517;-78
2024/01/15 06:41:43;;;;;;;11.00;9.90;;;;;;;-0.42;85.73;95738.60;106931;1273;22549;-79
2024/01/15 06:44:12;;;;;;;10.60;9.50;;;;;;;-0.42;86.22;95746.16;107178;1273;25376;-79
2024/01/15 06:46:43;;;;;;;10.60;8.90;;;;;;;-0.39;85.96;95731.89;107186;1273;23529;-79
2024/01/15 06:49:12;;;;;;;10.80;9.70;;;;;;;-0.37;85.47;95737.48;107247;1274;27114;-79
2024/01/15 06:51:40;;;;;;;12.10;10.60;;;;;;;-0.39;85.40;95750.80;107352;1275;27659;-79
2024/01/15 06:54:08;;;;;;;10.20;9.20;;;;;;;-0.40;85.12;95743.97;107446;1275;22530;-78
2024/01/15 06:56:36;;;;;;;15.80;14.20;;;;;;;-0.41;85.30;95744.61;107262;1261;24331;-77
2024/01/15 06:59:04;;;;;;;12.60;9.20;;;;;;;-0.40;85.97;95744.88;106950;1273;22588;-79
2024/01/15 07:01:32;;;;;;;10.50;9.40;;;;;;;-0.39;85.81;95749.42;107024;1274;25300;-80
2024/01/15 07:04:00;;;;;;;13.90;12.50;;;;;;;-0.38;85.23;95741.20;106746;1274;22657;-79
2024/01/15 07:06:28;;;;;;;13.90;12.50;;;;;;;-0.42;85.27;95742.73;107269;1275;24449;-79
2024/01/15 07:08:56;;;;;;;11.90;9.50;;;;;;;-0.44;85.22;95754.55;107209;1260;25707;-80
2024/01/15 07:11:24;;;;;;;10.80;8.30;;;;;;;-0.43;85.48;95768.30;107355;1275;25342;-79
2024/01/15 07:13:52;;;;;;;14.10;10.50;;;;;;;-0.40;85.78;95775.63;107257;1275;24261;-79
2024/01/15 07:16:20;;;;;;;10.00;8.30;;;;;;;-0.38;85.87;95764.27;107217;1275;22747;-79
2024/01/15 07:19:06;;;;;;;13.20;10.40;;;;;;;-0.37;85.54;95767.55;107200;1274;23654;-80
2024/01/15 07:21:34;;;;;;;14.80;10.50;;;;;;;-0.38;85.30;95767.55;107188;1273;25379;-79
2024/01/15 07:24:02;;;;;;;14.10;11.60;;;;;;;-0.40;85.20;95773.50;107414;1274;23164;-80
2024/01/15 07:26:31;;;;;;;13.80;12.00;;;;;;;-0.42;85.46;95777.48;107313;1270;22551;-80
2024/01/15 07:29:00;;;;;;;28.00;16.80;;;;;;;-0.37;86.01;95784.06;107267;1275;22519;-80
2024/01/15 07:31:29;;;;;;;13.90;10.70;;;;;;;-0.34;85.38;95784.66;107153;1273;23119;-78
2024/01/15 07:33:57;;;;;;;15.40;11.70;;;;;;;-0.35;84.99;95783.79;106761;1269;22524;-79
2024/01/15 07:36:25;;;;;;;30.50;17.10;;;;;;;-0.39;84.99;95793.59;106660;1276;24392;-78
2024/01/15 07:38:53;;;;;;;21.80;16.40;;;;;;;-0.39;84.82;95798.88;106927;1274;22581;-78
2024/01/15 07:41:21;;;;;;;15.20;10.90;;;;;;;-0.40;84.95;95803.88;106834;1275;24218;-77
2024/01/15 07:43:49;;;;;;;15.00;11.70;;;;;;;-0.36;85.56;95802.62;106995;1276;24167;-78
2024/01/15 07:46:17;;;;;;;15.90;14.00;;;;;;;-0.34;85.42;95803.35;106953;1270;22570;-79
2024/01/15 07:48:45;;;;;;;15.20;11.10;;;;;;;-0.36;85.25;95805.00;106821;1276;25398;-79
2024/01/15 07:51:14;;;;;;;16.40;14.70;;;;;;;-0.36;85.03;95810.25;106983;1275;25250;-80
2024/01/15 07:53:42;;;;;;;14.90;13.30;;;;;;;-0.38;85.00;95806.82;107081;1275;24250;-80
2024/01/15 07:56:10;;;;;;;14.00;11.60;;;;;;;-0.39;84.71;95814.23;106988;1275;22538;-78
2024/01/15 07:58:38;;;;;;;12.80;11.50;;;;;;;-0.36;85.28;95812.83;106912;1273;23897;-79
2024/01/15 08:01:06;;;;;;;11.60;10.20;;;;;;;-0.36;85.24;95813.48;106811;1268;24302;-80
2024/01/15 08:03:34;;;;;;;13.30;10.90;;;;;;;-0.36;85.10;95810.62;107210;1274;22670;-80
2024/01/15 08:06:03;;;;;;;14.40;12.90;;;;;;;-0.37;84.96;95812.58;107174;1275;25388;-79
2024/01/15 08:08:31;;;;;;;18.80;16.90;;;;;;;-0.36;84.94;95813.27;106767;1275;24356;-79
2024/01/15 08:10:59;;;;;;;15.10;13.30;;;;;;;-0.36;84.75;95808.76;107289;1275;23917;-78
2024/01/15 08:13:27;;;;;;;12.20;10.90;;;;;;;-0.32;85.16;95815.82;106955;1264;23394;-78
2024/01/15 08:15:55;;;;;;;11.80;10.60;;;;;;;-0.29;84.89;95817.05;106911;1272;25408;-80
2024/01/15 08:18:24;;;;;;;13.60;12.30;;;;;;;-0.32;84.82;95821.52;107243;1275;23360;-80
2024/01/15 08:20:52;;;;;;;12.50;11.20;;;;;;;-0.32;84.80;95823.64;107149;1273;23912;-79
2024/01/15 08:23:20;;;;;;;13.70;11.70;;;;;;;-0.31;84.48;95825.34;107221;1275;25493;-79
2024/01/15 08:25:48;;;;;;;15.00;13.50;;;;;;;-0.36;84.51;95826.02;107078;1270;25324;-79
2024/01/15 08:28:16;;;;;;;15.80;14.20;;;;;;;-0.36;84.86;95834.00;107120;1275;22555;-79
2024/01/15 08:30:44;;;;;;;14.60;13.10;;;;;;;-0.38;85.00;95839.20;107202;1273;22548;-79
2024/01/15 08:33:12;;;;;;;15.30;13.80;;;;;;;-0.44;84.55;95833.88;107145;1269;22647;-79
2024/01/15 08:35:49;;;;;;;15.10;13.50;;;;;;;-0.49;84.29;95826.34;107240;1254;22572;-79
2024/01/15 08:38:16;;;;;;;21.80;18.00;;;;;;;-0.52;84.31;95825.64;106875;1263;24315;-78
2024/01/15 08:40:44;;;;;;;30.10;27.10;;;;;;;-0.54;84.58;95828.71;107385;1275;25256;-79
2024/01/15 08:43:12;;;;;;;21.40;19.30;;;;;;;-0.53;85.14;95822.35;107381;1260;23050;-79
2024/01/15 08:45:40;;;;;;;23.60;21.30;;;;;;;-0.50;85.56;95827.46;107517;1275;22787;-78
2024/01/15 08:48:08;;;;;;;22.40;20.30;;;;;;;-0.51;85.23;95828.27;107601;1273;22551;-79
2024/01/15 08:54:22;;;;;;;17.20;14.80;;;;;;;-0.59;84.70;95836.11;107315;1267;22648;-79
2024/01/15 08:56:50;;;;;;;14.70;13.20;;;;;;;-0.63;85.17;95854.77;107188;1276;24271;-77
2024/01/15 08:59:24;;;;;;;15.40;13.60;;;;;;;-0.69;85.94;95850.15;106813;1273;23897;-78
2024/01/15 09:01:52;;;;;;;15.80;13.90;;;;;;;-0.63;86.12;95846.88;107179;1270;22838;-79
2024/01/15 09:04:20;;;;;;;15.70;14.20;;;;;;;-0.59;85.78;95850.36;106790;1274;22647;-80
2024/01/15 09:06:48;;;;;;;18.40;16.40;;;;;;;-0.56;85.84;95847.89;106932;1275;25256;-80
2024/01/15 09:09:17;;;;;;;16.80;15.00;;;;;;;-0.54;86.22;95842.68;107178;1275;22541;-79
2024/01/15 09:11:45;;;;;;;17.60;15.70;;;;;;;-0.40;86.58;95852.89;106945;1275;25284;-79
2024/01/15 09:14:13;;;;;;;23.80;21.20;;;;;;;-0.34;86.27;95858.02;107288;1261;22545;-82
2024/01/15 09:16:43;;;;;;;21.10;19.00;;;;;;;-0.40;86.44;95865.21;107287;1273;23036;-80
2024/01/15 09:19:11;;;;;;;17.20;15.50;;;;;;;-0.45;86.94;95858.22;107443;1270;23769;-78
2024/01/15 09:21:40;;;;;;;17.70;15.80;;;;;;;-0.47;87.76;95857.96;107842;1254;22549;-77
2024/01/15 09:24:08;;;;;;;19.80;17.70;;;;;;;-0.47;88.15;95852.73;107431;1269;22706;-77
2024/01/15 09:26:35;;;;;;;22.70;20.50;;;;;;;-0.45;87.79;95841.65;106907;1274;25274;-77
2024/01/15 09:29:03;;;;;;;23.10;20.80;;;;;;;-0.47;87.38;95848.06;106899;1266;22537;-76
2024/01/15 09:31:31;;;;;;;22.90;20.60;;;;;;;-0.48;87.25;95840.30;107261;1270;23980;-78
2024/01/15 09:34:00;;;;;;;23.50;21.10;;;;;;;-0.42;87.50;95842.52;107482;1253;25600;-78
2024/01/15 09:36:28;;;;;;;18.90;16.80;;;;;;;-0.30;87.54;95851.19;106983;1270;26596;-78
2024/01/15 09:38:56;;;;;;;19.30;17.50;;;;;;;-0.24;86.90;95843.64;106877;1275;25371;-78
2024/01/15 09:41:25;;;;;;;20.40;18.40;;;;;;;-0.32;86.79;95842.75;106832;1275;24493;-78
2024/01/15 09:43:53;;;;;;;19.20;17.20;;;;;;;-0.46;87.10;95855.84;107318;1275;22632;-78
2024/01/15 09:46:22;;;;;;;18.10;16.30;;;;;;;-0.55;87.84;95852.15;107323;1267;22537;-77
2024/01/15 09:48:50;;;;;;;19.40;17.40;;;;;;;-0.58;88.34;95843.19;107206;1275;24386;-77
2024/01/15 09:51:19;;;;;;;24.80;22.40;;;;;;;-0.58;88.11;95847.38;107191;1270;22543;-77
2024/01/15 09:53:49;;;;;;;22.80;20.40;;;;;;;-0.60;87.62;95844.17;107216;1275;185451;-79
2024/01/15 09:56:17;;;;;;;26.00;23.40;;;;;;;-0.65;87.08;95847.00;107390;1263;22554;-77
2024/01/15 09:58:46;;;;;;;22.40;20.20;;;;;;;-0.63;87.58;95848.25;107364;1275;22553;-77
2024/01/15 10:01:16;;;;;;;20.40;18.40;;;;;;;-0.58;87.71;95850.59;107352;1275;25361;-78
2024/01/15 10:03:46;;;;;;;36.10;32.70;;;;;;;-0.58;87.17;95840.81;107357;1261;23887;-76
2024/01/15 10:06:17;;;;;;;26.10;23.50;;;;;;;-0.57;87.09;95848.38;107253;1270;25371;-76
2024/01/15 10:08:51;;;;;;;22.20;20.00;;;;;;;-0.53;86.63;95848.60;106906;1275;23468;-76
2024/01/15 10:11:19;;;;;;;22.60;20.60;;;;;;;-0.44;86.04;95843.55;106889;1275;22553;-77
2024/01/15 10:13:50;;;;;;;23.00;20.60;;;;;;;-0.30;85.41;95848.45;106875;1273;25255;-76
2024/01/15 10:16:21;;;;;;;22.90;20.70;;;;;;;-0.13;85.73;95849.09;107232;1273;22570;-77
2024/01/15 10:18:49;;;;;;;21.60;19.50;;;;;;;0.03;84.76;95850.13;107334;1270;22669;-77
2024/01/15 10:21:17;;;;;;;22.50;20.20;;;;;;;0.18;83.63;95840.55;107253;1273;24215;-77
2024/01/15 10:23:46;;;;;;;22.30;20.30;;;;;;;0.35;84.18;95842.89;106864;1260;25429;-77
2024/01/15 10:26:14;;;;;;;21.50;19.40;;;;;;;0.54;82.68;95843.98;107219;1275;24373;-77
2024/01/15 10:28:51;;;;;;;23.10;20.70;;;;;;;0.62;82.41;95834.50;107286;1269;23912;-77
2024/01/15 10:31:22;;;;;;;23.70;21.30;;;;;;;0.68;82.44;95835.47;107353;1270;22574;-77
2024/01/15 10:34:09;;;;;;;23.50;21.20;;;;;;;0.67;81.03;95832.36;107377;1275;25294;-77
2024/01/15 10:36:40;;;;;;;25.30;22.90;;;;;;;0.60;80.44;95836.86;107109;1260;22554;-78
2024/01/15 10:39:08;;;;;;;23.00;20.70;;;;;;;0.59;79.97;95828.97;107438;1267;23306;-77
2024/01/15 10:41:36;;;;;;;24.00;21.70;;;;;;;0.57;79.20;95828.36;106949;1270;22537;-76
2024/01/15 10:44:04;;;;;;;26.30;23.60;;;;;;;0.49;79.18;95829.05;107035;1260;22644;-78
2024/01/15 10:46:34;;;;;;;22.20;20.00;;;;;;;0.38;78.83;95837.28;106922;1270;22520;-75
2024/01/15 10:49:02;;;;;;;23.90;21.50;;;;;;;0.35;79.61;95834.98;106885;1267;23924;-76
2024/01/15 10:51:31;;;;;;;23.30;21.00;;;;;;;0.49;79.34;95840.59;106954;1268;22563;-75
2024/01/15 10:54:01;;;;;;;22.60;20.40;;;;;;;0.64;79.51;95843.69;106957;1273;25330;-76
2024/01/15 10:56:33;;;;;;;21.20;19.20;;;;;;;0.62;78.31;95843.40;106932;1270;22543;-76
2024/01/15 10:59:02;;;;;;;22.30;20.10;;;;;;;0.47;78.09;95844.49;106884;1269;22547;-75
2024/01/15 11:01:31;;;;;;;28.30;22.70;;;;;;;0.30;78.10;95845.01;106826;1275;22536;-75
2024/01/15 11:04:00;;;;;;;24.70;22.20;;;;;;;0.16;78.40;95837.23;106941;1273;24329;-76
2024/01/15 11:06:28;;;;;;;23.20;20.70;;;;;;;0.08;78.88;95844.84;106815;1259;22619;-75
2024/01/15 11:08:58;;;;;;;24.40;21.60;;;;;;;0.02;79.49;95843.31;106869;1268;24693;-75
2024/01/15 11:11:26;;;;;;;29.60;25.50;;;;;;;-0.03;79.41;95848.44;106962;1260;25384;-75
2024/01/15 11:13:56;;;;;;;27.70;24.70;;;;;;;-0.05;79.26;95834.48;106953;1275;22626;-75
2024/01/15 11:16:24;;;;;;;24.60;22.30;;;;;;;0.00;78.99;95833.07;106864;1268;22551;-77
2024/01/15 11:18:58;;;;;;;24.90;22.20;;;;;;;0.02;78.99;95820.71;107292;1272;25424;-79
2024/01/15 11:21:29;;;;;;;27.70;25.00;;;;;;;0.11;78.86;95823.71;107408;1275;22654;-79
2024/01/15 11:24:00;;;;;;;24.50;22.10;;;;;;;0.11;78.14;95827.65;107235;1260;22591;-79